Time;durP1;ratioP1;P1;durP2;ratioP2;P2;SDS_P1;SDS_P2;PMS_P1;PMS_P2;Temp;Humidity;BMP_temperature;BMP_pressure;BME280_temperature;BME280_humidity;BME280_pressure;Samples;Min_cycle;Max_cycle;Signal;HPM_P1;HPM_P2
2023/08/31 00:02:09;;;;;;;3.55;1.10;;;;;;;;;;5094319;28;20131;-57
2023/08/31 00:04:35;;;;;;;2.25;0.90;;;;;;;;;;5111323;28;20040;-56
2023/08/31 00:07:01;;;;;;;3.78;1.27;;;;;;;;;;5107299;28;20120;-56
2023/08/31 00:09:29;;;;;;;4.15;1.30;;;;;;;;;;5104511;28;20163;-56
2023/08/31 00:11:58;;;;;;;4.70;1.00;;;;;;;;;;5104827;28;20054;-56
2023/08/31 00:14:26;;;;;;;2.90;0.90;;;;;;;;;;5089734;28;20040;-56
2023/08/31 00:16:52;;;;;;;2.33;1.00;;;;;;;;;;5089745;28;20043;-56
2023/08/31 00:19:19;;;;;;;2.90;1.02;;;;;;;;;;5088594;28;20452;-56
2023/08/31 00:21:45;;;;;;;3.85;0.95;;;;;;;;;;5098977;28;21486;-56
2023/08/31 00:24:12;;;;;;;4.05;1.05;;;;;;;;;;5089955;28;20040;-57
2023/08/31 00:26:40;;;;;;;6.68;1.25;;;;;;;;;;5090064;28;20048;-57
2023/08/31 00:29:09;;;;;;;2.60;1.17;;;;;;;;;;5089942;28;20043;-56
2023/08/31 00:31:35;;;;;;;4.07;1.00;;;;;;;;;;5088103;28;20365;-56
2023/08/31 00:34:04;;;;;;;4.85;1.20;;;;;;;;;;5091050;28;20474;-57
2023/08/31 00:36:31;;;;;;;4.28;1.00;;;;;;;;;;5093803;28;20048;-57
2023/08/31 00:38:57;;;;;;;1.92;1.00;;;;;;;;;;5094252;28;20040;-57
2023/08/31 00:41:23;;;;;;;3.17;1.10;;;;;;;;;;5093463;28;20129;-56
2023/08/31 00:43:50;;;;;;;4.45;1.15;;;;;;;;;;5092931;28;20051;-57
2023/08/31 00:46:16;;;;;;;3.70;1.17;;;;;;;;;;5093640;28;20499;-57
2023/08/31 00:48:42;;;;;;;3.13;1.10;;;;;;;;;;5096659;28;20460;-57
2023/08/31 00:51:10;;;;;;;8.50;1.08;;;;;;;;;;5094495;28;20076;-56
2023/08/31 00:53:36;;;;;;;3.55;1.00;;;;;;;;;;5093217;28;20137;-57
2023/08/31 00:56:03;;;;;;;3.33;0.88;;;;;;;;;;5093616;28;20066;-57
2023/08/31 00:58:30;;;;;;;3.85;1.60;;;;;;;;;;5092664;28;20524;-57
2023/08/31 01:01:13;;;;;;;2.63;0.82;;;;;;;;;;5094139;28;20067;-56
2023/08/31 01:03:46;;;;;;;3.55;0.90;;;;;;;;;;5091259;28;20059;-57
2023/08/31 01:06:31;;;;;;;3.53;1.08;;;;;;;;;;5110581;28;20039;-56
2023/08/31 01:09:00;;;;;;;8.95;1.90;;;;;;;;;;5108503;27;20040;-57
2023/08/31 01:11:37;;;;;;;3.50;0.82;;;;;;;;;;5111258;28;20452;-56
2023/08/31 01:14:29;;;;;;;1.27;0.60;;;;;;;;;;5095343;28;20345;-57
2023/08/31 01:16:57;;;;;;;6.95;1.10;;;;;;;;;;5096177;28;20055;-57
2023/08/31 01:19:30;;;;;;;5.00;0.95;;;;;;;;;;5107611;28;20056;-57
2023/08/31 01:21:58;;;;;;;4.73;0.57;;;;;;;;;;5112864;28;20047;-57
2023/08/31 01:24:25;;;;;;;5.40;0.80;;;;;;;;;;5105259;28;20488;-56
2023/08/31 01:26:52;;;;;;;1.65;0.70;;;;;;;;;;5111033;28;20143;-57
2023/08/31 01:29:19;;;;;;;2.47;0.73;;;;;;;;;;5098920;28;20048;-56
2023/08/31 01:31:45;;;;;;;3.33;0.60;;;;;;;;;;5101227;28;20047;-57
2023/08/31 01:34:11;;;;;;;3.53;0.80;;;;;;;;;;5104313;28;20088;-56
2023/08/31 01:36:42;;;;;;;3.30;0.90;;;;;;;;;;5108999;28;20447;-56
2023/08/31 01:39:15;;;;;;;5.88;0.93;;;;;;;;;;5103147;28;20483;-56
2023/08/31 01:41:44;;;;;;;3.20;0.85;;;;;;;;;;5113786;28;20044;-57
2023/08/31 01:44:14;;;;;;;3.03;0.80;;;;;;;;;;5094552;27;20036;-56
2023/08/31 01:46:41;;;;;;;3.55;0.90;;;;;;;;;;5100667;28;20438;-56
2023/08/31 01:49:07;;;;;;;3.05;0.68;;;;;;;;;;5097407;28;20092;-56
2023/08/31 01:51:33;;;;;;;4.47;1.17;;;;;;;;;;5113023;28;20368;-57
2023/08/31 01:53:59;;;;;;;1.70;0.60;;;;;;;;;;5103545;28;20044;-56
2023/08/31 01:56:25;;;;;;;3.58;0.80;;;;;;;;;;5113843;28;20044;-56
2023/08/31 01:58:51;;;;;;;4.60;0.80;;;;;;;;;;5099162;28;20075;-56
2023/08/31 02:01:18;;;;;;;7.03;1.20;;;;;;;;;;5104188;28;20122;-57
2023/08/31 02:03:44;;;;;;;2.67;0.80;;;;;;;;;;5094862;28;20044;-57
2023/08/31 02:06:10;;;;;;;4.00;0.82;;;;;;;;;;5112078;28;20048;-56
2023/08/31 02:08:36;;;;;;;7.32;0.80;;;;;;;;;;5109505;27;20051;-57
2023/08/31 02:11:02;;;;;;;4.72;0.80;;;;;;;;;;5113398;27;20084;-57
2023/08/31 02:13:30;;;;;;;2.90;0.70;;;;;;;;;;5100677;28;20040;-56
2023/08/31 02:15:56;;;;;;;4.45;1.02;;;;;;;;;;5090839;28;20048;-57
2023/08/31 02:18:22;;;;;;;3.42;0.68;;;;;;;;;;5091908;28;20040;-56
2023/08/31 02:20:53;;;;;;;1.80;0.70;;;;;;;;;;5092029;28;20040;-56
2023/08/31 02:23:19;;;;;;;3.45;0.90;;;;;;;;;;5091960;28;20116;-56
2023/08/31 02:25:45;;;;;;;3.33;0.85;;;;;;;;;;5092772;28;20044;-56
2023/08/31 02:28:11;;;;;;;3.58;0.70;;;;;;;;;;5090574;28;20040;-57
2023/08/31 02:30:38;;;;;;;4.38;1.25;;;;;;;;;;5091631;28;20131;-57
2023/08/31 02:33:04;;;;;;;3.42;1.00;;;;;;;;;;5090636;28;20487;-56
2023/08/31 02:35:30;;;;;;;5.82;1.10;;;;;;;;;;5092693;28;20237;-57
2023/08/31 02:37:56;;;;;;;4.90;1.05;;;;;;;;;;5091923;28;20040;-56
2023/08/31 02:40:22;;;;;;;3.80;0.80;;;;;;;;;;5090680;28;20058;-57
2023/08/31 02:42:52;;;;;;;3.80;1.05;;;;;;;;;;5091527;28;20044;-57
2023/08/31 02:45:18;;;;;;;3.25;1.05;;;;;;;;;;5090496;28;20100;-56
2023/08/31 02:47:44;;;;;;;4.38;1.13;;;;;;;;;;5090031;28;20106;-57
2023/08/31 02:50:11;;;;;;;6.22;1.23;;;;;;;;;;5091978;28;20400;-57
2023/08/31 02:52:37;;;;;;;7.82;1.40;;;;;;;;;;5091343;28;20514;-56
2023/08/31 02:55:03;;;;;;;3.42;1.10;;;;;;;;;;5091474;28;20069;-56
2023/08/31 02:57:30;;;;;;;6.70;1.30;;;;;;;;;;5090754;28;20396;-56
2023/08/31 02:59:56;;;;;;;4.93;1.10;;;;;;;;;;5091117;28;20109;-56
2023/08/31 03:02:22;;;;;;;3.47;0.98;;;;;;;;;;5090503;28;20044;-57
2023/08/31 03:04:49;;;;;;;10.02;1.40;;;;;;;;;;5096462;28;20043;-57
2023/08/31 03:07:15;;;;;;;8.15;1.45;;;;;;;;;;5111574;28;20499;-56
2023/08/31 03:09:41;;;;;;;6.45;1.13;;;;;;;;;;5106521;28;20047;-57
2023/08/31 03:12:08;;;;;;;6.35;1.30;;;;;;;;;;5103714;28;20032;-56
2023/08/31 03:14:34;;;;;;;7.68;1.60;;;;;;;;;;5098709;28;20499;-56
2023/08/31 03:17:00;;;;;;;4.70;1.33;;;;;;;;;;5111197;28;20082;-56
2023/08/31 03:19:26;;;;;;;8.73;1.40;;;;;;;;;;5108054;28;20100;-57
2023/08/31 03:21:52;;;;;;;9.75;1.30;;;;;;;;;;5106967;28;20047;-57
2023/08/31 03:24:19;;;;;;;4.55;1.20;;;;;;;;;;5108163;28;20155;-56
2023/08/31 03:26:45;;;;;;;6.55;1.40;;;;;;;;;;5111758;28;20047;-57
2023/08/31 03:29:11;;;;;;;7.75;1.73;;;;;;;;;;5096666;27;20044;-57
2023/08/31 03:31:37;;;;;;;9.27;1.40;;;;;;;;;;5104689;28;20433;-56
2023/08/31 03:34:03;;;;;;;7.30;1.50;;;;;;;;;;5099086;28;20036;-56
2023/08/31 03:36:30;;;;;;;5.80;1.40;;;;;;;;;;5108039;28;20074;-56
2023/08/31 03:38:56;;;;;;;7.70;1.45;;;;;;;;;;5105457;28;20508;-56
2023/08/31 03:41:22;;;;;;;3.75;1.33;;;;;;;;;;5111571;28;20043;-57
2023/08/31 03:43:48;;;;;;;9.65;1.77;;;;;;;;;;5089701;28;20058;-57
2023/08/31 03:46:14;;;;;;;5.55;1.30;;;;;;;;;;5099882;28;20111;-56
2023/08/31 03:48:40;;;;;;;7.57;1.48;;;;;;;;;;5094772;28;20139;-57
2023/08/31 03:51:07;;;;;;;9.02;1.30;;;;;;;;;;5110701;28;20044;-56
2023/08/31 03:53:33;;;;;;;6.47;1.48;;;;;;;;;;5106524;28;20075;-56
2023/08/31 03:55:59;;;;;;;7.75;1.52;;;;;;;;;;5111193;28;20122;-56
2023/08/31 03:58:25;;;;;;;4.75;1.20;;;;;;;;;;5100211;28;20408;-56
2023/08/31 04:00:52;;;;;;;8.82;1.42;;;;;;;;;;5091130;28;20035;-56
2023/08/31 04:03:18;;;;;;;10.80;1.38;;;;;;;;;;5092853;28;20082;-56
2023/08/31 04:05:44;;;;;;;6.70;1.20;;;;;;;;;;5099686;28;20039;-56
2023/08/31 04:08:10;;;;;;;5.40;1.10;;;;;;;;;;5092062;28;20047;-56
2023/08/31 04:10:36;;;;;;;4.15;1.20;;;;;;;;;;5100487;28;20043;-56
2023/08/31 04:13:03;;;;;;;5.07;1.38;;;;;;;;;;5095177;28;20115;-57
2023/08/31 04:15:30;;;;;;;6.47;1.20;;;;;;;;;;5111398;28;20529;-57
2023/08/31 04:17:57;;;;;;;3.53;0.95;;;;;;;;;;5104919;28;20380;-57
2023/08/31 04:20:23;;;;;;;5.07;1.20;;;;;;;;;;5095984;28;20348;-56
2023/08/31 04:22:49;;;;;;;5.25;1.73;;;;;;;;;;5096028;28;20186;-57
2023/08/31 04:25:16;;;;;;;7.47;1.83;;;;;;;;;;5109693;28;20036;-57
2023/08/31 04:27:42;;;;;;;4.03;1.17;;;;;;;;;;5108010;28;20058;-57
2023/08/31 04:30:09;;;;;;;4.53;1.35;;;;;;;;;;5091093;28;20454;-56
2023/08/31 04:32:35;;;;;;;4.35;1.38;;;;;;;;;;5105205;28;20044;-57
2023/08/31 04:35:02;;;;;;;3.92;1.25;;;;;;;;;;5094190;28;20402;-56
2023/08/31 04:37:29;;;;;;;6.93;1.67;;;;;;;;;;5110962;28;20487;-56
2023/08/31 04:39:55;;;;;;;8.40;1.63;;;;;;;;;;5095497;28;20093;-57
2023/08/31 04:42:21;;;;;;;8.18;1.55;;;;;;;;;;5106699;28;20511;-57
2023/08/31 04:44:47;;;;;;;6.10;1.40;;;;;;;;;;5110927;28;20512;-57
2023/08/31 04:47:13;;;;;;;5.60;1.50;;;;;;;;;;5096078;28;20451;-56
2023/08/31 04:49:40;;;;;;;4.90;1.33;;;;;;;;;;5108128;28;20122;-57
2023/08/31 04:52:06;;;;;;;6.07;1.50;;;;;;;;;;5101904;28;20039;-57
2023/08/31 04:54:32;;;;;;;5.25;1.75;;;;;;;;;;5097825;28;20070;-56
2023/08/31 04:56:59;;;;;;;5.88;1.80;;;;;;;;;;5110774;28;20044;-57
2023/08/31 04:59:25;;;;;;;3.88;1.35;;;;;;;;;;5103331;28;20054;-56
2023/08/31 05:01:51;;;;;;;7.30;1.52;;;;;;;;;;5094385;28;20063;-57
2023/08/31 05:04:17;;;;;;;5.35;1.48;;;;;;;;;;5108619;28;20464;-56
2023/08/31 05:06:43;;;;;;;5.32;1.40;;;;;;;;;;5104508;28;20044;-57
2023/08/31 05:09:10;;;;;;;5.03;1.58;;;;;;;;;;5082252;28;20032;-56
2023/08/31 05:11:36;;;;;;;4.97;1.20;;;;;;;;;;5087807;28;20082;-57
2023/08/31 05:14:02;;;;;;;7.03;1.60;;;;;;;;;;5101017;28;20115;-57
2023/08/31 05:16:28;;;;;;;4.80;1.40;;;;;;;;;;5109709;28;20559;-57
2023/08/31 05:18:54;;;;;;;5.80;1.77;;;;;;;;;;5103723;28;20024;-57
2023/08/31 05:21:21;;;;;;;5.38;1.58;;;;;;;;;;5102155;28;20040;-56
2023/08/31 05:23:47;;;;;;;9.18;1.88;;;;;;;;;;5113623;28;20039;-57
2023/08/31 05:26:15;;;;;;;7.60;1.92;;;;;;;;;;5103952;28;20119;-56
2023/08/31 05:28:41;;;;;;;6.15;1.90;;;;;;;;;;5109676;28;20135;-57
2023/08/31 05:31:07;;;;;;;5.65;1.52;;;;;;;;;;5104007;28;20048;-57
2023/08/31 05:33:33;;;;;;;4.60;1.63;;;;;;;;;;5112028;27;20042;-56
2023/08/31 05:36:03;;;;;;;7.13;1.85;;;;;;;;;;5102489;28;20139;-57
2023/08/31 05:38:30;;;;;;;3.47;1.30;;;;;;;;;;5093070;28;20377;-57
2023/08/31 05:41:03;;;;;;;7.35;1.90;;;;;;;;;;5102166;28;20044;-57
2023/08/31 05:43:29;;;;;;;;;;;;;;;;;;5099257;28;20040;-57
2023/08/31 05:45:56;;;;;;;7.95;2.10;;;;;;;;;;5096125;28;19947;-57
2023/08/31 05:48:22;;;;;;;4.97;1.88;;;;;;;;;;5093043;28;20403;-57
2023/08/31 05:50:48;;;;;;;4.10;1.67;;;;;;;;;;5091575;28;20040;-57
2023/08/31 05:53:15;;;;;;;6.95;2.13;;;;;;;;;;5092316;28;20080;-57
2023/08/31 05:55:41;;;;;;;7.35;1.75;;;;;;;;;;5093403;28;20070;-57
2023/08/31 05:58:07;;;;;;;8.27;2.08;;;;;;;;;;5089534;28;20043;-57
2023/08/31 06:00:33;;;;;;;5.85;2.47;;;;;;;;;;5090895;28;20116;-57
2023/08/31 06:02:59;;;;;;;7.90;2.15;;;;;;;;;;5084643;28;20086;-57
2023/08/31 06:05:27;;;;;;;8.73;2.00;;;;;;;;;;5092167;28;20036;-57
2023/08/31 06:07:53;;;;;;;8.70;2.45;;;;;;;;;;5091584;28;20112;-57
2023/08/31 06:10:19;;;;;;;10.45;2.40;;;;;;;;;;5096973;28;20038;-57
2023/08/31 06:12:45;;;;;;;5.97;2.20;;;;;;;;;;5096869;28;20048;-57
2023/08/31 06:15:12;;;;;;;5.82;2.00;;;;;;;;;;5096592;28;20052;-57
2023/08/31 06:17:38;;;;;;;7.85;2.90;;;;;;;;;;5089479;28;20051;-57
2023/08/31 06:20:05;;;;;;;5.97;2.85;;;;;;;;;;5095939;28;20508;-57
2023/08/31 06:22:32;;;;;;;9.27;3.08;;;;;;;;;;5097304;28;20486;-57
2023/08/31 06:24:58;;;;;;;7.93;2.70;;;;;;;;;;5094675;28;20162;-57
2023/08/31 06:27:25;;;;;;;8.45;2.80;;;;;;;;;;5091043;28;20063;-57
2023/08/31 06:29:51;;;;;;;10.20;2.40;;;;;;;;;;5091428;28;20047;-57
2023/08/31 06:32:18;;;;;;;8.18;2.65;;;;;;;;;;5073703;28;20048;-57
2023/08/31 06:34:44;;;;;;;11.25;2.55;;;;;;;;;;5089556;28;20043;-57
2023/08/31 06:37:11;;;;;;;5.25;1.90;;;;;;;;;;5086100;28;20380;-57
2023/08/31 06:39:37;;;;;;;9.70;2.30;;;;;;;;;;5091471;28;20047;-57
2023/08/31 06:42:03;;;;;;;6.97;1.92;;;;;;;;;;5092473;28;20475;-57
2023/08/31 06:44:30;;;;;;;8.50;2.28;;;;;;;;;;5091872;28;20047;-58
2023/08/31 06:46:56;;;;;;;6.93;2.30;;;;;;;;;;5090819;28;20059;-57
2023/08/31 06:49:24;;;;;;;5.85;2.33;;;;;;;;;;5091179;28;20044;-57
2023/08/31 06:51:50;;;;;;;7.47;2.28;;;;;;;;;;5092108;28;20051;-57
2023/08/31 06:54:16;;;;;;;5.63;1.90;;;;;;;;;;5090201;28;20139;-57
2023/08/31 06:56:43;;;;;;;7.88;2.05;;;;;;;;;;5091133;28;20051;-57
2023/08/31 06:59:09;;;;;;;6.13;1.98;;;;;;;;;;5091228;28;20459;-58
2023/08/31 07:01:35;;;;;;;6.80;2.10;;;;;;;;;;5088401;28;20054;-57
2023/08/31 07:04:02;;;;;;;3.95;1.48;;;;;;;;;;5090118;28;20079;-57
2023/08/31 07:06:30;;;;;;;6.32;1.70;;;;;;;;;;5103722;28;20062;-57
2023/08/31 07:08:56;;;;;;;4.75;1.58;;;;;;;;;;5096431;28;20087;-57
2023/08/31 07:11:22;;;;;;;4.53;1.65;;;;;;;;;;5085928;28;20086;-58
2023/08/31 07:13:48;;;;;;;5.38;1.65;;;;;;;;;;5095329;28;20040;-58
2023/08/31 07:16:15;;;;;;;7.72;1.20;;;;;;;;;;5099398;28;20035;-57
2023/08/31 07:18:41;;;;;;;6.25;1.50;;;;;;;;;;5094716;28;20125;-57
2023/08/31 07:21:08;;;;;;;6.47;1.90;;;;;;;;;;5104703;28;20048;-57
2023/08/31 07:23:34;;;;;;;5.40;1.42;;;;;;;;;;5089844;28;20044;-58
2023/08/31 07:26:01;;;;;;;7.75;1.33;;;;;;;;;;5091560;28;20051;-57
2023/08/31 07:28:27;;;;;;;5.13;1.25;;;;;;;;;;5089661;28;20034;-57
2023/08/31 07:31:06;;;;;;;4.70;1.20;;;;;;;;;;5091491;28;20054;-58
2023/08/31 07:33:34;;;;;;;8.43;1.30;;;;;;;;;;5089890;28;20036;-57
2023/08/31 07:36:01;;;;;;;4.05;1.10;;;;;;;;;;5090300;28;20059;-58
2023/08/31 07:38:28;;;;;;;5.13;1.17;;;;;;;;;;5091076;28;20093;-57
2023/08/31 07:40:54;;;;;;;2.95;0.98;;;;;;;;;;5090848;28;20055;-58
2023/08/31 07:43:20;;;;;;;5.40;0.73;;;;;;;;;;5089699;28;20119;-57
2023/08/31 07:45:46;;;;;;;3.72;0.98;;;;;;;;;;5091040;28;20457;-57
2023/08/31 07:48:13;;;;;;;4.88;1.10;;;;;;;;;;5091148;28;20127;-57
2023/08/31 07:50:41;;;;;;;6.05;1.08;;;;;;;;;;5089184;28;20399;-58
2023/08/31 07:53:07;;;;;;;5.15;0.82;;;;;;;;;;5090449;28;20098;-58
2023/08/31 07:55:35;;;;;;;2.80;0.85;;;;;;;;;;5092399;28;20048;-58
2023/08/31 07:58:01;;;;;;;3.25;0.95;;;;;;;;;;5106718;28;20044;-57
2023/08/31 08:00:28;;;;;;;6.03;0.90;;;;;;;;;;5089786;28;20040;-58
2023/08/31 08:02:54;;;;;;;5.72;0.77;;;;;;;;;;5104061;28;20066;-57
2023/08/31 08:05:20;;;;;;;4.20;0.70;;;;;;;;;;5110365;28;20436;-58
2023/08/31 08:07:47;;;;;;;2.67;0.60;;;;;;;;;;5111115;28;20044;-57
2023/08/31 08:10:14;;;;;;;2.88;0.60;;;;;;;;;;5104726;28;20039;-58
2023/08/31 08:12:43;;;;;;;2.08;0.50;;;;;;;;;;5103854;28;20077;-57
2023/08/31 08:15:09;;;;;;;3.47;0.68;;;;;;;;;;5103493;28;20506;-58
2023/08/31 08:17:36;;;;;;;2.15;0.65;;;;;;;;;;5102004;28;20119;-58
2023/08/31 08:20:03;;;;;;;3.45;0.70;;;;;;;;;;5103615;28;20039;-58
2023/08/31 08:22:30;;;;;;;4.05;0.70;;;;;;;;;;5100725;28;20048;-58
2023/08/31 08:24:56;;;;;;;2.42;1.00;;;;;;;;;;5110123;27;20048;-57
2023/08/31 08:27:22;;;;;;;4.90;1.50;;;;;;;;;;5111267;28;20048;-57
2023/08/31 08:29:48;;;;;;;2.78;0.90;;;;;;;;;;5096108;28;20389;-57
2023/08/31 08:32:14;;;;;;;3.08;0.60;;;;;;;;;;5096968;28;20035;-57
2023/08/31 08:34:41;;;;;;;4.78;0.82;;;;;;;;;;5111092;28;20131;-57
2023/08/31 08:37:07;;;;;;;8.35;1.05;;;;;;;;;;5110837;28;20119;-57
2023/08/31 08:39:33;;;;;;;4.13;0.73;;;;;;;;;;5103120;28;20042;-57
2023/08/31 08:41:59;;;;;;;2.33;0.60;;;;;;;;;;5091840;28;20056;-57
2023/08/31 08:44:26;;;;;;;6.07;0.70;;;;;;;;;;5096717;28;20054;-57
2023/08/31 08:46:52;;;;;;;6.60;1.25;;;;;;;;;;5110081;28;20058;-57
2023/08/31 08:49:19;;;;;;;3.50;0.80;;;;;;;;;;5106627;28;20044;-57
2023/08/31 08:51:50;;;;;;;5.50;1.75;;;;;;;;;;5090802;28;20048;-58
2023/08/31 08:54:17;;;;;;;4.00;0.90;;;;;;;;;;5109499;28;20155;-57
2023/08/31 08:56:44;;;;;;;4.70;1.00;;;;;;;;;;5111239;28;20051;-57
2023/08/31 08:59:13;;;;;;;5.50;1.30;;;;;;;;;;5109434;28;20406;-57
2023/08/31 09:01:39;;;;;;;2.53;0.80;;;;;;;;;;5093163;28;20040;-58
2023/08/31 09:04:06;;;;;;;3.78;0.70;;;;;;;;;;5111072;28;20083;-57
2023/08/31 09:06:33;;;;;;;4.45;0.90;;;;;;;;;;5108172;28;20071;-57
2023/08/31 09:08:59;;;;;;;4.82;1.27;;;;;;;;;;5089084;28;20104;-57
2023/08/31 09:11:26;;;;;;;5.43;1.00;;;;;;;;;;5102045;28;20055;-58
2023/08/31 09:13:52;;;;;;;5.32;1.08;;;;;;;;;;5101035;28;20032;-57
2023/08/31 09:16:29;;;;;;;4.32;1.10;;;;;;;;;;5097934;28;20121;-57
2023/08/31 09:18:55;;;;;;;7.05;1.00;;;;;;;;;;5092449;28;20060;-57
2023/08/31 09:21:24;;;;;;;6.03;1.15;;;;;;;;;;5108084;28;20055;-58
2023/08/31 09:23:59;;;;;;;6.82;1.42;;;;;;;;;;5114322;27;20047;-57
2023/08/31 09:26:26;;;;;;;7.28;1.15;;;;;;;;;;5103725;28;20167;-58
2023/08/31 09:28:52;;;;;;;5.95;1.23;;;;;;;;;;5092904;27;20068;-57
2023/08/31 09:31:19;;;;;;;3.90;0.88;;;;;;;;;;5106630;28;20156;-57
2023/08/31 09:33:51;;;;;;;5.68;1.15;;;;;;;;;;5112731;28;20513;-57
2023/08/31 09:36:18;;;;;;;7.63;1.10;;;;;;;;;;5100409;28;20495;-57
2023/08/31 09:38:44;;;;;;;1.95;0.70;;;;;;;;;;5108291;28;20354;-57
2023/08/31 09:41:11;;;;;;;4.75;1.00;;;;;;;;;;5106183;28;20047;-58
2023/08/31 09:43:37;;;;;;;4.63;1.10;;;;;;;;;;5107842;28;20048;-57
2023/08/31 09:46:04;;;;;;;2.40;0.93;;;;;;;;;;5107963;28;20165;-57
2023/08/31 09:48:30;;;;;;;4.13;1.00;;;;;;;;;;5102950;28;20063;-57
2023/08/31 09:50:57;;;;;;;4.10;0.90;;;;;;;;;;5113063;28;20075;-57
2023/08/31 09:53:28;;;;;;;4.15;0.77;;;;;;;;;;5093911;28;20067;-57
2023/08/31 09:55:55;;;;;;;2.33;0.70;;;;;;;;;;5104005;28;20062;-57
2023/08/31 09:58:22;;;;;;;5.43;0.85;;;;;;;;;;5103024;28;20048;-56
2023/08/31 10:00:52;;;;;;;4.05;0.90;;;;;;;;;;5104406;28;20105;-58
2023/08/31 10:03:18;;;;;;;6.88;1.00;;;;;;;;;;5091808;28;20040;-57
2023/08/31 10:05:45;;;;;;;4.40;1.02;;;;;;;;;;5101996;28;20043;-58
2023/08/31 10:08:12;;;;;;;6.05;1.13;;;;;;;;;;5094688;28;20479;-58
2023/08/31 10:10:39;;;;;;;4.57;0.95;;;;;;;;;;5102883;28;20047;-57
2023/08/31 10:13:05;;;;;;;3.13;0.70;;;;;;;;;;5099017;28;20044;-58
2023/08/31 10:15:35;;;;;;;4.80;0.77;;;;;;;;;;5109676;28;20047;-58
2023/08/31 10:18:02;;;;;;;4.20;0.70;;;;;;;;;;5102367;28;20048;-58
2023/08/31 10:20:31;;;;;;;5.63;1.83;;;;;;;;;;5099730;28;20061;-58
2023/08/31 10:22:58;;;;;;;3.63;0.75;;;;;;;;;;5098318;28;20116;-58
2023/08/31 10:25:26;;;;;;;2.63;0.70;;;;;;;;;;5084115;28;20048;-58
2023/08/31 10:27:54;;;;;;;3.13;1.10;;;;;;;;;;5113126;28;20039;-58
2023/08/31 10:30:23;;;;;;;5.45;1.00;;;;;;;;;;5097915;28;20445;-58
2023/08/31 10:33:04;;;;;;;4.22;0.93;;;;;;;;;;5102748;28;20040;-58
2023/08/31 10:35:49;;;;;;;4.45;0.65;;;;;;;;;;5107141;28;20174;-58
2023/08/31 10:38:16;;;;;;;3.08;0.77;;;;;;;;;;5105179;28;20119;-58
2023/08/31 10:40:42;;;;;;;3.90;0.80;;;;;;;;;;5110203;28;20547;-58
2023/08/31 10:43:15;;;;;;;3.38;0.65;;;;;;;;;;5112905;28;20130;-58
2023/08/31 10:45:45;;;;;;;3.22;0.77;;;;;;;;;;5112089;28;20036;-58
2023/08/31 10:48:11;;;;;;;2.67;0.82;;;;;;;;;;5100058;28;20150;-58
2023/08/31 10:50:45;;;;;;;2.65;0.82;;;;;;;;;;5109642;28;20028;-58
2023/08/31 10:53:14;;;;;;;7.20;1.05;;;;;;;;;;5100826;27;20075;-58
2023/08/31 10:56:00;;;;;;;3.90;0.73;;;;;;;;;;5109646;28;20043;-58
2023/08/31 10:58:32;;;;;;;3.05;0.70;;;;;;;;;;5105439;28;20032;-58
2023/08/31 11:00:58;;;;;;;3.80;0.90;;;;;;;;;;5103892;28;20067;-58
2023/08/31 11:03:25;;;;;;;3.75;1.05;;;;;;;;;;5112425;28;20455;-58
2023/08/31 11:05:54;;;;;;;3.05;0.70;;;;;;;;;;5112524;27;20042;-58
2023/08/31 11:08:23;;;;;;;3.00;0.77;;;;;;;;;;5105921;28;20093;-58
2023/08/31 11:10:50;;;;;;;2.63;0.65;;;;;;;;;;5087789;28;20048;-58
2023/08/31 11:13:17;;;;;;;2.35;0.68;;;;;;;;;;5108114;28;20492;-59
2023/08/31 11:15:46;;;;;;;4.18;0.75;;;;;;;;;;5098980;28;20471;-58
2023/08/31 11:18:15;;;;;;;3.00;0.80;;;;;;;;;;5099055;28;20041;-58
2023/08/31 11:20:41;;;;;;;4.82;0.82;;;;;;;;;;5107085;28;20104;-58
2023/08/31 11:23:07;;;;;;;4.55;0.60;;;;;;;;;;5112130;28;20039;-58
2023/08/31 11:25:33;;;;;;;6.03;0.90;;;;;;;;;;5111931;28;20126;-58
2023/08/31 11:28:01;;;;;;;3.17;0.88;;;;;;;;;;5100810;28;20032;-59
2023/08/31 11:30:28;;;;;;;3.95;0.80;;;;;;;;;;5111284;28;20130;-58
2023/08/31 11:32:55;;;;;;;3.40;0.90;;;;;;;;;;5099814;28;20046;-59
2023/08/31 11:35:22;;;;;;;4.97;1.10;;;;;;;;;;5111112;28;20100;-58
2023/08/31 11:37:52;;;;;;;6.22;1.27;;;;;;;;;;5103472;28;20036;-58
2023/08/31 11:40:18;;;;;;;6.55;1.00;;;;;;;;;;5108302;28;20113;-58
2023/08/31 11:42:45;;;;;;;3.00;0.82;;;;;;;;;;5110678;28;20471;-58
2023/08/31 11:45:13;;;;;;;5.20;0.95;;;;;;;;;;5089091;28;20044;-58
2023/08/31 11:47:40;;;;;;;4.43;1.30;;;;;;;;;;5089502;28;20176;-58
2023/08/31 11:50:07;;;;;;;4.07;0.90;;;;;;;;;;5103776;28;20047;-63
2023/08/31 11:52:33;;;;;;;3.75;0.90;;;;;;;;;;5088960;28;20471;-58
2023/08/31 11:55:00;;;;;;;3.25;0.80;;;;;;;;;;5093327;28;20084;-59
2023/08/31 11:57:26;;;;;;;5.35;0.85;;;;;;;;;;5091478;28;20411;-58
2023/08/31 11:59:53;;;;;;;2.28;0.80;;;;;;;;;;5091735;28;20078;-59
2023/08/31 12:02:19;;;;;;;5.47;0.93;;;;;;;;;;5091918;28;20100;-59
2023/08/31 12:04:46;;;;;;;3.03;0.80;;;;;;;;;;5099779;28;20507;-60
2023/08/31 12:07:17;;;;;;;3.88;1.02;;;;;;;;;;5113957;27;20048;-59
2023/08/31 12:09:46;;;;;;;4.10;0.65;;;;;;;;;;5106236;28;20043;-59
2023/08/31 12:12:18;;;;;;;3.55;0.80;;;;;;;;;;5099676;28;20384;-59
2023/08/31 12:14:44;;;;;;;5.05;1.02;;;;;;;;;;5091055;28;20097;-59
2023/08/31 12:17:10;;;;;;;3.20;0.93;;;;;;;;;;5095750;28;20058;-58
2023/08/31 12:19:38;;;;;;;2.20;0.75;;;;;;;;;;5109618;28;20062;-59
2023/08/31 12:22:04;;;;;;;4.85;1.08;;;;;;;;;;5089240;28;20111;-59
2023/08/31 12:24:37;;;;;;;8.63;1.27;;;;;;;;;;5087545;28;20153;-59
2023/08/31 12:27:05;;;;;;;3.55;1.17;;;;;;;;;;5104942;28;20178;-59
2023/08/31 12:29:31;;;;;;;4.53;1.27;;;;;;;;;;5097580;28;20044;-58
2023/08/31 12:31:57;;;;;;;3.78;0.98;;;;;;;;;;5091864;28;20352;-58
2023/08/31 12:34:24;;;;;;;5.50;1.10;;;;;;;;;;5099873;28;20051;-59
2023/08/31 12:36:50;;;;;;;5.00;0.93;;;;;;;;;;5100574;28;20118;-58
2023/08/31 12:39:16;;;;;;;4.80;1.13;;;;;;;;;;5092981;28;20200;-58
2023/08/31 12:41:42;;;;;;;5.10;1.13;;;;;;;;;;5099850;28;20047;-58
2023/08/31 12:44:09;;;;;;;4.40;1.10;;;;;;;;;;5091478;28;20075;-58
2023/08/31 12:46:35;;;;;;;7.78;1.08;;;;;;;;;;5089045;28;20047;-58
2023/08/31 12:49:02;;;;;;;5.28;1.00;;;;;;;;;;5101046;28;20032;-58
2023/08/31 12:51:32;;;;;;;2.80;0.60;;;;;;;;;;5094156;28;20506;-59
2023/08/31 12:53:58;;;;;;;3.22;0.90;;;;;;;;;;5101685;28;20364;-58
2023/08/31 12:56:25;;;;;;;4.28;0.82;;;;;;;;;;5090346;28;20044;-59
2023/08/31 12:58:51;;;;;;;4.38;0.90;;;;;;;;;;5094238;28;20044;-59
2023/08/31 13:01:18;;;;;;;2.53;0.80;;;;;;;;;;5088123;28;20429;-59
2023/08/31 13:03:45;;;;;;;2.72;0.68;;;;;;;;;;5098231;28;20048;-59
2023/08/31 13:06:11;;;;;;;4.47;1.20;;;;;;;;;;5109491;28;20058;-59
2023/08/31 13:08:37;;;;;;;4.38;0.82;;;;;;;;;;5097617;28;20036;-59
2023/08/31 13:11:05;;;;;;;3.67;1.15;;;;;;;;;;5094520;28;20044;-59
2023/08/31 13:13:31;;;;;;;5.43;1.45;;;;;;;;;;5078675;28;20523;-59
2023/08/31 13:15:57;;;;;;;5.07;1.00;;;;;;;;;;5098485;28;20062;-58
2023/08/31 13:18:24;;;;;;;5.38;0.80;;;;;;;;;;5093654;28;20073;-59
2023/08/31 13:20:51;;;;;;;4.90;1.00;;;;;;;;;;5102086;28;20100;-59
2023/08/31 13:23:17;;;;;;;5.78;1.15;;;;;;;;;;5087658;28;20510;-59
2023/08/31 13:25:43;;;;;;;2.53;0.85;;;;;;;;;;5089642;28;20036;-59
2023/08/31 13:28:10;;;;;;;6.32;0.80;;;;;;;;;;5087218;28;20089;-59
2023/08/31 13:30:36;;;;;;;3.70;0.95;;;;;;;;;;5089933;28;20055;-59
2023/08/31 13:33:04;;;;;;;5.90;0.95;;;;;;;;;;5087400;28;20040;-59
2023/08/31 13:35:30;;;;;;;4.53;1.25;;;;;;;;;;5087704;28;20161;-59
2023/08/31 13:37:56;;;;;;;2.97;0.80;;;;;;;;;;5090156;28;20077;-59
2023/08/31 13:40:23;;;;;;;5.45;0.98;;;;;;;;;;5088706;28;20128;-59
2023/08/31 13:42:58;;;;;;;4.00;1.02;;;;;;;;;;5091777;28;20051;-58
2023/08/31 13:45:25;;;;;;;6.43;1.35;;;;;;;;;;5093453;28;20108;-58
2023/08/31 13:47:51;;;;;;;3.30;0.82;;;;;;;;;;5092837;28;20047;-58
2023/08/31 13:50:17;;;;;;;6.40;1.20;;;;;;;;;;5090502;28;20045;-58
2023/08/31 13:52:44;;;;;;;3.33;0.80;;;;;;;;;;5089983;28;20062;-58
2023/08/31 13:55:10;;;;;;;4.38;0.80;;;;;;;;;;5091893;28;20135;-58
2023/08/31 13:57:36;;;;;;;3.95;1.02;;;;;;;;;;5090956;28;20110;-59
2023/08/31 14:00:04;;;;;;;3.20;0.85;;;;;;;;;;5093121;28;20137;-58
2023/08/31 14:02:31;;;;;;;3.75;0.90;;;;;;;;;;5088068;28;20105;-58
2023/08/31 14:04:57;;;;;;;3.80;1.10;;;;;;;;;;5090498;28;20059;-59
2023/08/31 14:07:23;;;;;;;5.20;1.05;;;;;;;;;;5093039;28;20502;-59
2023/08/31 14:09:50;;;;;;;5.32;0.93;;;;;;;;;;5089175;28;20081;-58
2023/08/31 14:12:16;;;;;;;3.80;1.10;;;;;;;;;;5093157;28;20050;-59
2023/08/31 14:14:45;;;;;;;8.05;1.45;;;;;;;;;;5090057;28;20044;-58
2023/08/31 14:17:12;;;;;;;8.90;1.45;;;;;;;;;;5090628;28;20063;-58
2023/08/31 14:19:39;;;;;;;3.55;0.80;;;;;;;;;;5090946;28;20036;-59
2023/08/31 14:22:05;;;;;;;4.40;1.00;;;;;;;;;;5092986;28;20047;-59
2023/08/31 14:24:32;;;;;;;3.78;0.90;;;;;;;;;;5090882;28;20036;-59
2023/08/31 14:26:58;;;;;;;5.70;1.20;;;;;;;;;;5092710;28;20040;-58
2023/08/31 14:29:24;;;;;;;5.00;1.13;;;;;;;;;;5089162;28;20442;-59
2023/08/31 14:31:53;;;;;;;3.70;1.05;;;;;;;;;;5090435;28;20101;-58
2023/08/31 14:34:19;;;;;;;6.50;1.00;;;;;;;;;;5090809;28;20044;-58
2023/08/31 14:36:45;;;;;;;6.03;1.17;;;;;;;;;;5092433;28;20086;-58
2023/08/31 14:39:11;;;;;;;3.38;1.08;;;;;;;;;;5089515;28;20470;-59
2023/08/31 14:41:37;;;;;;;5.53;1.33;;;;;;;;;;5085513;28;20040;-58
2023/08/31 14:44:03;;;;;;;6.47;1.10;;;;;;;;;;5090332;28;20632;-58